Time;durP1;ratioP1;P1;durP2;ratioP2;P2;SDS_P1;SDS_P2;PMS_P1;PMS_P2;Temp;Humidity;BMP_temperature;BMP_pressure;BME280_temperature;BME280_humidity;BME280_pressure;Samples;Min_cycle;Max_cycle;Signal;HPM_P1;HPM_P2
2022/01/09 00:02:24;;;;;;;28.48;12.80;;;;;;;4.05;68.53;93079.56;5025026;28;20238;-72
2022/01/09 00:04:50;;;;;;;29.83;13.27;;;;;;;4.04;68.44;93084.06;5024926;28;20033;-72
2022/01/09 00:07:15;;;;;;;19.27;10.40;;;;;;;4.04;68.37;93083.28;5025121;28;20305;-72
2022/01/09 00:09:41;;;;;;;23.50;10.77;;;;;;;4.06;68.76;93081.13;5025178;28;20053;-72
2022/01/09 00:12:07;;;;;;;25.65;11.77;;;;;;;4.03;68.89;93077.25;5024878;28;20105;-72
2022/01/09 00:14:33;;;;;;;18.75;10.32;;;;;;;4.05;68.67;93075.09;5024813;28;20279;-72
2022/01/09 00:16:59;;;;;;;22.52;11.00;;;;;;;4.05;68.85;93083.00;5024502;28;20034;-72
2022/01/09 00:19:25;;;;;;;17.58;8.98;;;;;;;4.07;68.93;93078.22;5024718;28;20312;-72
2022/01/09 00:21:51;;;;;;;19.60;9.52;;;;;;;4.09;68.87;93084.00;5024840;28;20033;-72
2022/01/09 00:24:16;;;;;;;18.92;8.23;;;;;;;4.09;68.93;93084.00;5024753;28;20084;-72
2022/01/09 00:26:42;;;;;;;18.60;9.02;;;;;;;4.08;69.22;93079.78;5024731;28;20022;-71
2022/01/09 00:29:09;;;;;;;11.13;6.63;;;;;;;4.15;69.02;93079.38;5024531;28;20033;-71
2022/01/09 00:31:34;;;;;;;14.60;7.68;;;;;;;4.17;69.00;93070.13;5024440;28;20346;-71
2022/01/09 00:34:00;;;;;;;13.45;7.50;;;;;;;4.19;68.94;93067.16;5024243;28;20026;-71
2022/01/09 00:36:25;;;;;;;16.88;8.73;;;;;;;4.25;68.96;93065.22;5024465;28;20033;-71
2022/01/09 00:38:51;;;;;;;20.95;9.50;;;;;;;4.29;68.79;93066.97;5024540;28;20129;-72
2022/01/09 00:41:16;;;;;;;15.65;7.15;;;;;;;4.32;68.71;93068.28;5024250;28;20029;-71
2022/01/09 00:43:41;;;;;;;16.67;7.57;;;;;;;4.36;68.68;93071.88;5024400;28;20228;-71
2022/01/09 00:46:08;;;;;;;15.00;7.05;;;;;;;4.35;68.23;93057.13;5023694;28;20212;-71
2022/01/09 00:48:34;;;;;;;14.32;6.15;;;;;;;4.24;68.69;93051.25;5023840;28;20018;-72
2022/01/09 00:51:00;;;;;;;12.75;6.38;;;;;;;4.29;68.86;93045.88;5023249;28;20075;-72
2022/01/09 00:53:25;;;;;;;12.35;6.07;;;;;;;4.31;68.70;93058.78;5023622;28;20041;-71
2022/01/09 00:55:51;;;;;;;9.88;5.57;;;;;;;4.31;68.78;93056.91;5023922;28;20026;-71
2022/01/09 00:58:16;;;;;;;14.32;7.00;;;;;;;4.27;69.14;93065.72;5023916;28;20060;-71
2022/01/09 01:00:42;;;;;;;16.17;7.22;;;;;;;4.26;69.33;93066.81;5024202;28;20033;-71
2022/01/09 01:03:07;;;;;;;15.57;8.40;;;;;;;4.19;69.48;93060.06;5023947;28;20036;-71
2022/01/09 01:05:33;;;;;;;13.98;7.38;;;;;;;4.19;69.78;93067.16;5023928;28;20093;-71
2022/01/09 01:07:58;;;;;;;15.05;7.40;;;;;;;4.21;69.88;93062.38;5023806;28;20371;-71
2022/01/09 01:10:24;;;;;;;19.60;8.18;;;;;;;4.22;69.82;93054.19;5023701;28;20316;-72
2022/01/09 01:12:49;;;;;;;15.48;8.32;;;;;;;4.27;69.75;93055.16;5022505;28;20244;-72
2022/01/09 01:15:15;;;;;;;16.80;8.00;;;;;;;4.33;69.73;93056.63;5023862;28;20068;-72
2022/01/09 01:17:41;;;;;;;21.77;8.93;;;;;;;4.37;69.34;93039.91;5023608;28;20105;-72
2022/01/09 01:20:07;;;;;;;17.42;8.05;;;;;;;4.39;69.39;93045.69;5023705;28;20108;-72
2022/01/09 01:22:33;;;;;;;24.33;9.80;;;;;;;4.42;69.25;93031.91;5023520;28;20032;-72
2022/01/09 01:25:00;;;;;;;31.23;10.43;;;;;;;4.48;68.97;93037.06;5023562;28;20056;-72
2022/01/09 01:27:26;;;;;;;26.30;11.05;;;;;;;4.52;68.88;93036.22;5023548;28;20021;-72
2022/01/09 01:29:51;;;;;;;30.02;10.85;;;;;;;4.54;68.81;93034.06;5023513;28;20307;-72
2022/01/09 01:32:17;;;;;;;28.52;9.75;;;;;;;4.58;68.48;93034.22;5022176;28;20021;-72
2022/01/09 01:34:42;;;;;;;30.88;10.40;;;;;;;4.63;68.35;93034.13;5023557;28;20025;-72
2022/01/09 01:37:08;;;;;;;24.83;9.45;;;;;;;4.64;68.16;93033.06;5023369;28;20045;-72
2022/01/09 01:39:33;;;;;;;30.20;10.07;;;;;;;4.67;68.05;93026.41;5023272;28;20032;-72
2022/01/09 01:41:59;;;;;;;21.42;9.05;;;;;;;4.69;67.91;93029.53;5023282;28;20025;-72
2022/01/09 01:44:24;;;;;;;17.02;9.02;;;;;;;4.68;68.12;93020.03;5022643;28;20096;-72
2022/01/09 01:46:50;;;;;;;20.20;8.70;;;;;;;4.67;68.02;93011.34;5023219;28;20037;-72
2022/01/09 01:49:15;;;;;;;20.75;9.18;;;;;;;4.71;67.95;93016.81;5023322;28;20383;-72
2022/01/09 01:51:44;;;;;;;39.08;12.30;;;;;;;4.75;68.08;93020.44;5023108;28;20025;-72
2022/01/09 01:54:13;;;;;;;60.17;16.17;;;;;;;4.75;68.02;93008.00;5022907;28;20048;-72
2022/01/09 01:56:39;;;;;;;60.65;16.77;;;;;;;4.76;67.42;93008.78;5023090;28;20267;-72
2022/01/09 01:59:06;;;;;;;58.47;15.65;;;;;;;4.78;67.80;93009.28;5021835;28;20034;-72
2022/01/09 02:01:31;;;;;;;20.65;7.97;;;;;;;4.74;67.63;93000.38;5023009;28;20025;-72
2022/01/09 02:03:57;;;;;;;17.70;7.60;;;;;;;4.70;67.91;93002.06;5022930;28;20047;-72
2022/01/09 02:06:23;;;;;;;22.23;9.98;;;;;;;4.62;68.44;92993.00;5022792;28;20089;-72
2022/01/09 02:08:49;;;;;;;23.88;8.93;;;;;;;4.65;68.37;92991.63;5022817;28;20336;-72
2022/01/09 02:11:14;;;;;;;18.50;7.80;;;;;;;4.71;68.32;92995.72;5022957;28;20021;-72
2022/01/09 02:13:41;;;;;;;20.88;8.77;;;;;;;4.70;68.28;92986.22;5022596;28;20052;-72
2022/01/09 02:16:16;;;;;;;20.65;8.85;;;;;;;4.69;68.28;92982.81;5022701;28;20029;-72
2022/01/09 02:18:42;;;;;;;15.77;7.90;;;;;;;4.75;68.27;92978.19;5022576;28;20068;-72
2022/01/09 02:21:10;;;;;;;28.85;11.30;;;;;;;4.71;68.25;92967.44;5022736;28;20231;-72
2022/01/09 02:23:37;;;;;;;25.42;9.93;;;;;;;4.71;68.39;92967.44;5022887;28;20089;-72
2022/01/09 02:26:03;;;;;;;28.42;9.63;;;;;;;4.69;68.23;92966.19;5022638;28;20018;-72
2022/01/09 02:28:29;;;;;;;24.38;8.27;;;;;;;4.69;68.49;92959.03;5022484;28;20030;-72
2022/01/09 02:30:55;;;;;;;19.85;7.60;;;;;;;4.69;68.22;92955.63;5022585;28;20287;-72
2022/01/09 02:33:20;;;;;;;13.75;6.28;;;;;;;4.68;68.33;92946.94;5022596;28;20018;-72
2022/01/09 02:35:51;;;;;;;18.50;7.05;;;;;;;4.73;68.23;92938.13;5022739;28;20101;-73
2022/01/09 02:38:17;;;;;;;14.57;6.15;;;;;;;4.74;68.11;92942.31;5022669;28;20022;-73
2022/01/09 02:40:43;;;;;;;15.70;6.53;;;;;;;4.76;68.23;92943.59;5022552;28;20076;-73
2022/01/09 02:43:08;;;;;;;11.77;5.80;;;;;;;4.76;68.24;92937.50;5022301;28;20045;-72
2022/01/09 02:45:34;;;;;;;16.25;7.32;;;;;;;4.77;68.06;92941.72;5022471;28;20021;-72
2022/01/09 02:48:02;;;;;;;17.60;7.30;;;;;;;4.79;67.96;92923.72;5022403;28;20025;-72
2022/01/09 02:50:34;;;;;;;15.52;6.43;;;;;;;4.80;67.86;92925.28;5022528;28;20228;-72
2022/01/09 02:53:01;;;;;;;13.25;7.03;;;;;;;4.79;67.84;92931.63;5022538;28;20022;-72
2022/01/09 02:55:29;;;;;;;13.65;5.90;;;;;;;4.79;67.68;92919.22;5022107;28;20053;-72
2022/01/09 02:57:57;;;;;;;12.45;6.13;;;;;;;4.82;67.29;92923.91;5026310;28;20068;-72
2022/01/09 03:00:28;;;;;;;13.65;6.10;;;;;;;4.75;67.51;92936.72;5026291;28;20037;-72
2022/01/09 03:02:55;;;;;;;14.13;6.10;;;;;;;4.74;67.54;92937.03;5026225;28;20256;-72
2022/01/09 03:05:21;;;;;;;10.95;5.95;;;;;;;4.68;67.79;92930.31;5026088;28;20194;-72
2022/01/09 03:07:47;;;;;;;16.98;6.25;;;;;;;4.61;67.92;92926.22;5026209;28;20247;-72
2022/01/09 03:10:14;;;;;;;22.60;6.93;;;;;;;4.50;68.31;92922.25;5026044;28;20120;-72
2022/01/09 03:12:40;;;;;;;13.38;6.18;;;;;;;4.45;69.03;92922.34;5025916;28;20050;-72
2022/01/09 03:15:07;;;;;;;15.80;7.28;;;;;;;4.45;69.30;92909.16;5025934;28;20029;-72
2022/01/09 03:17:33;;;;;;;15.10;6.75;;;;;;;4.51;69.17;92915.88;5025943;28;20018;-72
2022/01/09 03:19:59;;;;;;;12.35;5.82;;;;;;;4.51;68.67;92917.75;5025782;28;20079;-73
2022/01/09 03:22:25;;;;;;;13.00;6.43;;;;;;;4.37;69.12;92905.34;5025864;28;20316;-72
2022/01/09 03:24:50;;;;;;;10.48;5.82;;;;;;;4.35;69.50;92915.44;5025934;28;20068;-72
2022/01/09 03:27:17;;;;;;;12.95;6.03;;;;;;;4.31;69.41;92913.69;5026007;28;20028;-72
2022/01/09 03:29:42;;;;;;;11.05;5.85;;;;;;;4.25;69.50;92901.69;5025853;28;20018;-72
2022/01/09 03:32:08;;;;;;;12.23;5.63;;;;;;;4.22;70.00;92910.97;5025659;28;20028;-72
2022/01/09 03:34:35;;;;;;;11.88;5.45;;;;;;;4.21;69.95;92899.66;5025446;28;20216;-72
2022/01/09 03:37:00;;;;;;;9.18;4.78;;;;;;;4.18;69.77;92905.50;5025506;28;20026;-73
2022/01/09 03:39:26;;;;;;;11.07;5.93;;;;;;;4.22;70.19;92900.44;5025567;28;20022;-72
2022/01/09 03:41:54;;;;;;;10.07;5.28;;;;;;;4.29;70.06;92905.28;5025444;28;20021;-72
2022/01/09 03:44:20;;;;;;;11.40;5.43;;;;;;;4.29;70.10;92907.94;5025569;28;20216;-73
2022/01/09 03:46:45;;;;;;;10.63;5.68;;;;;;;4.35;70.04;92904.88;5025570;28;20024;-72
2022/01/09 03:49:11;;;;;;;12.15;5.88;;;;;;;4.41;69.75;92897.63;5025432;28;20022;-72
2022/01/09 03:51:38;;;;;;;12.07;6.47;;;;;;;4.50;69.42;92901.13;5025301;28;20316;-72
2022/01/09 03:54:07;;;;;;;15.95;6.85;;;;;;;4.54;69.34;92896.81;5025255;28;20036;-72
2022/01/09 03:56:33;;;;;;;17.45;7.68;;;;;;;4.53;69.39;92891.84;5025077;28;20018;-72
2022/01/09 03:58:59;;;;;;;15.80;7.60;;;;;;;4.48;69.82;92887.47;5025262;28;20028;-72
2022/01/09 04:01:25;;;;;;;16.25;8.43;;;;;;;4.41;70.09;92887.09;5024990;28;20022;-72
2022/01/09 04:03:51;;;;;;;16.40;8.35;;;;;;;4.41;70.00;92879.16;5025197;28;20152;-73
2022/01/09 04:06:16;;;;;;;18.17;8.10;;;;;;;4.37;69.99;92880.84;5025243;28;20022;-73
2022/01/09 04:08:42;;;;;;;15.95;8.02;;;;;;;4.33;70.08;92891.19;5024174;28;20030;-73
2022/01/09 04:11:09;;;;;;;16.95;7.80;;;;;;;4.33;70.15;92906.25;5025040;28;20022;-72
2022/01/09 04:13:36;;;;;;;15.02;7.88;;;;;;;4.31;70.21;92897.84;5040020;28;20042;-72
2022/01/09 04:16:01;;;;;;;18.42;8.70;;;;;;;4.33;70.08;92906.25;5024701;28;20032;-72
2022/01/09 04:18:28;;;;;;;18.00;8.60;;;;;;;4.35;69.97;92893.56;5024951;28;20022;-72
2022/01/09 04:20:54;;;;;;;17.33;7.93;;;;;;;4.39;69.70;92891.88;5024763;28;20025;-72
2022/01/09 04:23:20;;;;;;;15.85;7.70;;;;;;;4.39;69.77;92894.53;5024902;28;20029;-72
2022/01/09 04:25:46;;;;;;;16.90;8.18;;;;;;;4.39;69.84;92891.88;5024611;28;20092;-72
2022/01/09 04:28:13;;;;;;;20.20;8.77;;;;;;;4.43;69.85;92887.56;5024621;28;20029;-72
2022/01/09 04:30:39;;;;;;;19.35;9.40;;;;;;;4.44;69.73;92886.50;5024709;28;20021;-72
2022/01/09 04:33:05;;;;;;;19.80;9.93;;;;;;;4.46;69.53;92881.72;5024568;28;20064;-72
2022/01/09 04:35:30;;;;;;;23.98;10.63;;;;;;;4.48;69.51;92876.91;5024301;28;20026;-72
2022/01/09 04:37:56;;;;;;;23.65;10.05;;;;;;;4.49;69.14;92861.84;5024522;28;20059;-72
2022/01/09 04:40:22;;;;;;;21.83;10.45;;;;;;;4.46;69.15;92868.50;5024572;28;20022;-72
2022/01/09 04:42:55;;;;;;;20.27;9.25;;;;;;;4.46;69.26;92870.34;5024413;28;20072;-72
2022/01/09 04:45:22;;;;;;;19.88;9.32;;;;;;;4.45;69.29;92877.50;5024575;28;20193;-72
2022/01/09 04:47:50;;;;;;;18.70;9.18;;;;;;;4.47;69.20;92883.25;5024251;28;20052;-72
2022/01/09 04:50:22;;;;;;;24.50;10.27;;;;;;;4.48;69.07;92882.19;5024269;28;20017;-72
2022/01/09 04:52:51;;;;;;;21.20;10.20;;;;;;;4.42;69.50;92888.66;5024128;28;20044;-73
2022/01/09 04:55:16;;;;;;;23.25;9.55;;;;;;;4.36;69.96;92880.06;5024254;28;20041;-72
2022/01/09 04:57:42;;;;;;;22.17;10.43;;;;;;;4.38;69.74;92879.78;5023935;28;20115;-72
2022/01/09 05:00:07;;;;;;;20.80;10.18;;;;;;;4.39;69.98;92878.69;5024065;28;20022;-72
2022/01/09 05:02:33;;;;;;;22.10;10.32;;;;;;;4.39;69.99;92883.97;5024051;28;20095;-71
2022/01/09 05:04:59;;;;;;;26.55;11.95;;;;;;;4.42;69.96;92888.66;5024012;28;20045;-72
2022/01/09 05:07:25;;;;;;;23.08;11.35;;;;;;;4.46;69.74;92891.47;5023731;28;20026;-72
2022/01/09 05:09:50;;;;;;;21.05;10.15;;;;;;;4.50;69.66;92887.94;5024030;28;20022;-72
2022/01/09 05:12:16;;;;;;;19.90;11.13;;;;;;;4.49;69.67;92890.88;5023780;28;20037;-72
2022/01/09 05:14:41;;;;;;;20.27;9.52;;;;;;;4.49;69.22;92890.88;5023719;28;20022;-72
2022/01/09 05:17:07;;;;;;;27.50;11.18;;;;;;;4.48;69.28;92881.38;5022439;28;20045;-72
2022/01/09 05:19:34;;;;;;;22.45;9.85;;;;;;;4.41;69.11;92884.44;5037995;28;20064;-72
2022/01/09 05:22:01;;;;;;;22.27;9.10;;;;;;;4.38;69.42;92892.97;5023721;28;20029;-72
2022/01/09 05:24:27;;;;;;;20.75;8.75;;;;;;;4.38;69.38;92879.78;5023608;28;20224;-72
2022/01/09 05:26:53;;;;;;;20.17;8.80;;;;;;;4.40;69.45;92874.97;5023759;28;20024;-72
2022/01/09 05:29:19;;;;;;;18.98;9.27;;;;;;;4.38;69.12;92882.41;5023695;28;20137;-72
2022/01/09 05:31:44;;;;;;;19.55;9.60;;;;;;;4.35;69.81;92883.00;5023449;28;20030;-72
2022/01/09 05:34:10;;;;;;;17.48;8.90;;;;;;;4.38;69.65;92871.88;5023379;28;20080;-72
2022/01/09 05:36:36;;;;;;;20.73;10.00;;;;;;;4.38;69.66;92871.88;5023222;28;20029;-72
2022/01/09 05:39:02;;;;;;;19.75;9.60;;;;;;;4.34;69.74;92868.25;5023476;28;20026;-72
2022/01/09 05:41:27;;;;;;;19.83;9.07;;;;;;;4.31;70.27;92866.22;5023240;28;20032;-72
2022/01/09 05:43:53;;;;;;;18.88;8.93;;;;;;;4.31;70.23;92868.84;5023550;28;20028;-72
2022/01/09 05:46:18;;;;;;;18.58;8.60;;;;;;;4.18;70.55;92868.59;5023188;28;20018;-72
2022/01/09 05:48:44;;;;;;;19.15;8.15;;;;;;;3.93;71.50;92862.00;5023118;28;20263;-72
2022/01/09 05:51:09;;;;;;;22.92;9.07;;;;;;;3.87;71.39;92863.19;5023128;28;20335;-72
2022/01/09 05:53:34;;;;;;;15.13;7.50;;;;;;;3.86;71.99;92866.88;5023184;28;20053;-72
2022/01/09 05:56:00;;;;;;;20.10;9.85;;;;;;;3.90;72.13;92875.75;5023004;28;20067;-72
2022/01/09 05:58:26;;;;;;;18.05;8.35;;;;;;;3.96;72.07;92877.22;5022937;28;20036;-72
2022/01/09 06:00:51;;;;;;;18.88;9.13;;;;;;;4.03;71.81;92871.56;5023221;28;20029;-72
2022/01/09 06:03:17;;;;;;;17.92;8.32;;;;;;;4.10;71.61;92864.00;5022831;28;20045;-72
2022/01/09 06:05:42;;;;;;;16.75;8.45;;;;;;;4.17;71.29;92863.59;5023148;28;20025;-71
2022/01/09 06:08:08;;;;;;;19.85;8.23;;;;;;;4.26;71.24;92863.69;5022940;28;20048;-72
2022/01/09 06:10:33;;;;;;;18.73;8.90;;;;;;;4.33;70.47;92862.19;5022942;28;20072;-71
2022/01/09 06:12:59;;;;;;;18.38;8.27;;;;;;;4.39;70.37;92854.94;5022804;28;20290;-72
2022/01/09 06:15:24;;;;;;;17.23;8.80;;;;;;;4.47;70.08;92864.78;5022737;28;20039;-72
2022/01/09 06:17:50;;;;;;;17.95;8.27;;;;;;;4.53;69.99;92858.31;5023028;28;20079;-72
2022/01/09 06:20:15;;;;;;;13.23;7.15;;;;;;;4.60;69.81;92857.91;5022730;28;20289;-72
2022/01/09 06:22:42;;;;;;;14.80;6.93;;;;;;;4.67;69.78;92858.25;5022510;28;20034;-72
2022/01/09 06:25:09;;;;;;;16.33;7.72;;;;;;;4.75;69.68;92859.41;5022792;28;20107;-71
2022/01/09 06:27:35;;;;;;;16.95;7.63;;;;;;;4.82;69.30;92855.28;5022455;28;20235;-71
2022/01/09 06:30:01;;;;;;;14.85;7.93;;;;;;;4.88;69.35;92858.53;5022535;28;20061;-71
2022/01/09 06:32:26;;;;;;;18.70;8.52;;;;;;;4.98;68.63;92853.00;5022354;28;20105;-73
2022/01/09 06:34:52;;;;;;;17.33;8.27;;;;;;;5.08;68.52;92841.41;5021559;28;20030;-71
2022/01/09 06:37:17;;;;;;;17.00;8.90;;;;;;;5.17;68.37;92838.81;5022637;28;20124;-71
2022/01/09 06:39:44;;;;;;;17.10;8.02;;;;;;;5.23;67.81;92851.59;5022428;28;20025;-71
2022/01/09 06:42:10;;;;;;;17.50;8.88;;;;;;;5.30;67.43;92843.22;5022569;28;20029;-71
2022/01/09 06:44:36;;;;;;;16.00;8.57;;;;;;;5.39;66.93;92849.34;5022564;28;20021;-70
2022/01/09 06:47:02;;;;;;;20.15;10.13;;;;;;;5.49;66.42;92850.91;5022520;28;20029;-70
2022/01/09 06:49:27;;;;;;;17.63;8.63;;;;;;;5.55;66.44;92852.34;5022522;28;20028;-71
2022/01/09 06:51:52;;;;;;;14.23;7.47;;;;;;;5.60;66.21;92848.81;5022457;28;20092;-71
2022/01/09 06:54:18;;;;;;;13.07;6.95;;;;;;;5.68;65.97;92848.03;5022515;28;20092;-71
2022/01/09 06:56:44;;;;;;;11.77;6.20;;;;;;;5.75;65.78;92839.66;5022495;28;20096;-71
2022/01/09 06:59:09;;;;;;;9.90;5.60;;;;;;;5.83;65.38;92850.25;5022327;28;20336;-71
2022/01/09 07:01:35;;;;;;;8.52;4.97;;;;;;;5.88;65.24;92845.91;5022393;28;20243;-71
2022/01/09 07:04:00;;;;;;;13.10;6.43;;;;;;;5.92;65.07;92855.59;5022235;28;20033;-71
2022/01/09 07:06:26;;;;;;;13.02;7.53;;;;;;;5.94;64.85;92839.38;5022494;28;20335;-72
2022/01/09 07:08:51;;;;;;;12.75;6.82;;;;;;;5.95;65.01;92846.28;5021095;28;20096;-72
2022/01/09 07:11:16;;;;;;;16.65;6.90;;;;;;;5.99;64.62;92853.28;5022166;28;20029;-71
2022/01/09 07:13:42;;;;;;;13.25;7.25;;;;;;;6.06;64.59;92852.81;5021861;28;20105;-71
2022/01/09 07:16:07;;;;;;;11.77;7.03;;;;;;;6.11;64.01;92855.31;5022002;28;20037;-71
2022/01/09 07:18:33;;;;;;;14.60;7.22;;;;;;;6.12;63.74;92874.63;5022132;28;20026;-71
2022/01/09 07:20:59;;;;;;;12.63;7.20;;;;;;;6.09;63.95;92868.09;5022107;28;20093;-71
2022/01/09 07:23:25;;;;;;;9.60;5.50;;;;;;;6.14;63.85;92859.22;5022217;28;20022;-72
2022/01/09 07:25:50;;;;;;;9.30;5.47;;;;;;;6.15;63.97;92856.25;5022188;28;20049;-71
2022/01/09 07:28:16;;;;;;;9.43;5.80;;;;;;;6.20;64.10;92874.63;5021945;28;20032;-72
2022/01/09 07:30:41;;;;;;;9.27;5.10;;;;;;;6.26;63.75;92866.56;5022243;28;20244;-71
2022/01/09 07:33:07;;;;;;;9.15;4.72;;;;;;;6.31;63.81;92874.31;5022243;28;20299;-72
2022/01/09 07:35:33;;;;;;;9.63;4.78;;;;;;;6.37;63.57;92873.88;5021977;28;20030;-73
2022/01/09 07:37:59;;;;;;;9.85;5.35;;;;;;;6.43;63.25;92870.00;5022001;28;20026;-71
2022/01/09 07:40:24;;;;;;;9.63;5.32;;;;;;;6.50;63.09;92866.09;5021952;28;20022;-72
2022/01/09 07:42:50;;;;;;;9.52;5.28;;;;;;;6.59;62.65;92858.94;5022489;28;20037;-72
2022/01/09 07:45:19;;;;;;;13.57;5.85;;;;;;;6.70;61.83;92851.47;5025533;28;20022;-71
2022/01/09 07:47:44;;;;;;;13.05;5.97;;;;;;;6.78;60.89;92858.63;5025408;28;20025;-71
2022/01/09 07:50:10;;;;;;;8.55;5.50;;;;;;;6.78;61.26;92848.81;5025488;28;20049;-72
2022/01/09 07:52:37;;;;;;;27.45;14.93;;;;;;;6.82;61.34;92846.31;5025317;28;20228;-73
2022/01/09 07:55:04;;;;;;;12.80;7.00;;;;;;;6.92;61.71;92851.28;5025296;28;20049;-71
2022/01/09 07:57:29;;;;;;;9.55;5.78;;;;;;;7.02;61.82;92848.31;5025163;28;20022;-71
2022/01/09 07:59:58;;;;;;;15.40;5.70;;;;;;;7.10;61.74;92843.28;5025402;28;20092;-71
2022/01/09 08:02:24;;;;;;;11.27;6.05;;;;;;;7.21;61.54;92841.88;5025402;28;20045;-75
2022/01/09 08:04:50;;;;;;;16.35;6.20;;;;;;;7.40;62.93;92838.84;5024620;28;20375;-73
2022/01/09 08:07:16;;;;;;;16.23;6.35;;;;;;;7.55;62.29;92843.63;5025115;28;20224;-74
2022/01/09 08:09:42;;;;;;;10.65;6.15;;;;;;;7.57;60.11;92837.97;5025131;28;20025;-73
2022/01/09 08:12:10;;;;;;;12.50;6.57;;;;;;;7.52;59.95;92838.16;5040117;28;20048;-74
2022/01/09 08:14:37;;;;;;;11.43;6.10;;;;;;;7.68;59.58;92830.47;5024848;28;20017;-74
2022/01/09 08:17:03;;;;;;;11.43;6.03;;;;;;;7.83;59.45;92829.91;5024813;28;20026;-73
2022/01/09 08:19:30;;;;;;;12.50;6.93;;;;;;;7.94;58.79;92830.34;5024971;28;20089;-74
2022/01/09 08:21:56;;;;;;;14.82;7.68;;;;;;;7.99;58.49;92816.88;5025059;28;20057;-74
2022/01/09 08:24:21;;;;;;;13.65;7.57;;;;;;;8.03;58.68;92815.91;5024620;28;20311;-73
2022/01/09 08:26:47;;;;;;;14.65;6.63;;;;;;;8.11;58.15;92808.97;5024559;28;20050;-73
2022/01/09 08:29:14;;;;;;;11.27;5.53;;;;;;;8.17;58.13;92805.03;5024541;28;20045;-73
2022/01/09 08:31:40;;;;;;;11.18;5.20;;;;;;;8.30;57.70;92813.06;5024764;28;20316;-78
2022/01/09 08:34:05;;;;;;;7.47;3.97;;;;;;;8.37;57.33;92810.69;5024791;28;20022;-74
2022/01/09 08:36:32;;;;;;;9.05;4.70;;;;;;;8.45;56.62;92807.22;5024589;28;20232;-73
2022/01/09 08:38:57;;;;;;;10.05;5.00;;;;;;;8.48;56.58;92803.13;5024429;28;20252;-73
2022/01/09 08:41:23;;;;;;;8.05;4.75;;;;;;;8.49;56.67;92802.00;5024398;28;20029;-74
2022/01/09 08:44:10;;;;;;;6.65;3.53;;;;;;;8.40;56.20;92810.78;5023002;28;20084;-74
2022/01/09 08:46:36;;;;;;;7.03;3.92;;;;;;;8.43;56.12;92804.09;5023384;28;20137;-73
2022/01/09 08:49:04;;;;;;;13.32;5.38;;;;;;;8.42;56.29;92805.97;5024386;28;20391;-73
2022/01/09 08:51:30;;;;;;;15.30;4.70;;;;;;;8.46;56.48;92810.63;5024535;28;20031;-73
2022/01/09 08:53:56;;;;;;;10.40;5.65;;;;;;;8.46;56.42;92808.75;5024263;28;20048;-73
2022/01/09 08:56:23;;;;;;;9.85;4.82;;;;;;;8.42;56.47;92813.94;5024266;28;20036;-73
2022/01/09 08:58:49;;;;;;;9.88;4.68;;;;;;;8.44;56.67;92805.66;5022633;28;20022;-73
2022/01/09 09:01:16;;;;;;;12.70;5.25;;;;;;;8.52;56.23;92802.13;5022718;28;20052;-73
2022/01/09 09:03:42;;;;;;;10.00;4.45;;;;;;;8.51;56.82;92784.66;5022616;28;20022;-73
2022/01/09 09:06:11;;;;;;;11.00;5.60;;;;;;;8.58;56.56;92786.78;5022385;28;20030;-73
2022/01/09 09:08:37;;;;;;;15.40;5.72;;;;;;;8.63;56.20;92776.75;5023033;28;20029;-73
2022/01/09 09:11:06;;;;;;;13.48;5.82;;;;;;;8.70;56.42;92778.09;5023766;28;20033;-73
2022/01/09 09:13:31;;;;;;;16.13;5.65;;;;;;;8.75;56.49;92784.00;5023805;28;20046;-73
2022/01/09 09:15:57;;;;;;;10.43;5.30;;;;;;;8.80;56.43;92775.03;5024291;28;20034;-73
2022/01/09 09:18:22;;;;;;;16.23;6.63;;;;;;;8.86;55.85;92765.75;5023799;28;20033;-73
2022/01/09 09:20:48;;;;;;;10.88;5.80;;;;;;;8.85;55.84;92761.53;5023630;28;20142;-73
2022/01/09 09:23:13;;;;;;;12.32;5.95;;;;;;;8.87;55.98;92756.66;5039177;28;20091;-73
2022/01/09 09:25:39;;;;;;;14.10;5.53;;;;;;;8.83;55.93;92747.78;5023874;28;20017;-74
2022/01/09 09:28:04;;;;;;;11.68;6.30;;;;;;;8.81;55.89;92750.00;5039087;28;20300;-74
2022/01/09 09:30:30;;;;;;;9.25;5.53;;;;;;;8.76;55.68;92748.31;5023504;28;20105;-74
2022/01/09 09:32:56;;;;;;;10.68;5.78;;;;;;;8.73;55.44;92733.06;5023833;28;20040;-74
2022/01/09 09:35:21;;;;;;;12.90;6.53;;;;;;;8.69;55.77;92734.81;5023395;28;20033;-74
2022/01/09 09:37:47;;;;;;;43.53;20.52;;;;;;;8.64;55.86;92719.06;5023684;28;20041;-74
2022/01/09 09:40:13;;;;;;;17.00;8.82;;;;;;;8.63;56.10;92725.50;5023715;28;20033;-74
2022/01/09 09:42:39;;;;;;;10.30;5.40;;;;;;;8.61;55.90;92714.44;5038664;28;20068;-74
2022/01/09 09:45:07;;;;;;;20.38;6.15;;;;;;;8.61;55.96;92715.19;5026142;28;20266;-74
2022/01/09 09:47:33;;;;;;;8.45;4.75;;;;;;;8.59;56.28;92700.72;5023192;28;20028;-74
2022/01/09 09:49:59;;;;;;;9.32;5.15;;;;;;;8.52;56.13;92705.75;5023200;28;20022;-74
2022/01/09 09:52:25;;;;;;;10.15;5.28;;;;;;;8.50;56.61;92707.97;5023759;28;20022;-74
2022/01/09 09:54:51;;;;;;;9.63;5.07;;;;;;;8.48;56.91;92695.00;5023061;28;20067;-74
2022/01/09 09:57:17;;;;;;;11.60;4.85;;;;;;;8.46;57.13;92697.22;5023143;28;20036;-74
2022/01/09 09:59:43;;;;;;;9.25;5.13;;;;;;;8.47;57.39;92701.44;5023204;28;20041;-74
2022/01/09 10:02:16;;;;;;;9.88;4.63;;;;;;;8.59;57.36;92692.75;5023107;28;20026;-75
2022/01/09 10:05:00;;;;;;;9.60;5.10;;;;;;;8.66;57.55;92681.56;5023109;28;20103;-75
2022/01/09 10:07:26;;;;;;;11.82;5.40;;;;;;;8.76;57.21;92678.50;5023120;28;20064;-72
2022/01/09 10:09:59;;;;;;;11.50;5.35;;;;;;;8.84;57.18;92688.25;5023244;28;20017;-72
2022/01/09 10:12:26;;;;;;;15.90;5.63;;;;;;;8.92;56.56;92676.75;5022888;28;20052;-72
2022/01/09 10:14:54;;;;;;;11.98;5.65;;;;;;;8.98;56.48;92688.69;5024272;28;20096;-72
2022/01/09 10:17:20;;;;;;;13.30;5.88;;;;;;;9.02;55.97;92692.25;5023013;28;20061;-72
2022/01/09 10:20:10;;;;;;;13.38;6.70;;;;;;;9.13;56.14;92691.81;5023111;28;20026;-74
2022/01/09 10:22:39;;;;;;;11.23;5.43;;;;;;;9.22;56.04;92685.28;5022885;28;20076;-75
2022/01/09 10:25:25;;;;;;;9.82;5.85;;;;;;;9.40;55.21;92685.03;5022980;28;20025;-76
2022/01/09 10:28:14;;;;;;;9.55;4.78;;;;;;;9.52;54.95;92678.94;5022903;28;20052;-75
2022/01/09 10:30:41;;;;;;;7.95;4.75;;;;;;;9.51;54.88;92678.16;5023071;28;20030;-75
2022/01/09 10:33:15;;;;;;;12.50;5.35;;;;;;;9.58;54.73;92666.97;5023132;28;20288;-76
2022/01/09 10:35:44;;;;;;;10.23;4.55;;;;;;;9.70;54.42;92666.94;5022654;28;20041;-75
2022/01/09 10:38:13;;;;;;;7.75;4.40;;;;;;;9.79;54.35;92659.59;5022640;28;20057;-73
2022/01/09 10:40:42;;;;;;;13.05;4.82;;;;;;;9.92;54.16;92662.22;5022741;28;20018;-74
2022/01/09 10:43:20;;;;;;;12.52;4.90;;;;;;;9.96;53.61;92658.56;5022518;28;20018;-74
2022/01/09 10:45:49;;;;;;;14.68;5.45;;;;;;;9.87;53.82;92639.28;5022637;28;20041;-73
2022/01/09 10:48:21;;;;;;;10.95;5.35;;;;;;;9.87;53.73;92652.59;5022569;28;20080;-75
2022/01/09 10:50:48;;;;;;;15.23;4.70;;;;;;;9.90;53.85;92653.81;5022647;28;20032;-74
2022/01/09 10:53:30;;;;;;;15.10;5.28;;;;;;;10.02;53.43;92640.47;5022625;28;20029;-75
2022/01/09 10:56:04;;;;;;;;;;;;;;;9.96;53.88;92649.78;5023203;28;20037;-75
2022/01/09 10:58:30;;;;;;;11.02;5.40;;;;;;;9.98;53.33;92650.22;5022782;28;19916;-74
2022/01/09 11:01:15;;;;;;;18.10;6.10;;;;;;;10.13;53.63;92641.50;5022699;28;20223;-75
2022/01/09 11:03:44;;;;;;;15.50;5.72;;;;;;;10.25;53.32;92638.78;5022733;28;20040;-75
2022/01/09 11:06:10;;;;;;;19.45;5.75;;;;;;;10.41;52.55;92636.19;5022706;28;20041;-75
2022/01/09 11:08:37;;;;;;;9.32;4.78;;;;;;;10.35;52.78;92636.78;5022685;28;20034;-75
2022/01/09 11:11:09;;;;;;;13.77;6.25;;;;;;;10.39;52.29;92633.09;5022310;28;20033;-75
2022/01/09 11:13:42;;;;;;;11.40;4.78;;;;;;;10.52;52.05;92628.50;5022246;28;20056;-75
2022/01/09 11:18:56;;;;;;;10.65;5.55;;;;;;;10.72;51.65;92624.00;5026117;28;20084;-75
2022/01/09 11:21:22;;;;;;;13.52;4.65;;;;;;;10.68;51.87;92628.50;5026117;28;20018;-75
2022/01/09 11:23:50;;;;;;;9.13;4.47;;;;;;;10.73;51.14;92625.59;5026020;28;20093;-75
2022/01/09 11:26:16;;;;;;;7.85;4.40;;;;;;;10.76;51.23;92618.78;5026067;28;20312;-75
2022/01/09 11:28:45;;;;;;;8.57;4.47;;;;;;;10.76;51.44;92616.88;5025982;28;20093;-75
2022/01/09 11:31:45;;;;;;;9.18;4.25;;;;;;;10.88;51.41;92616.03;5026062;28;20100;-75
2022/01/09 11:34:43;;;;;;;8.23;4.45;;;;;;;11.09;50.63;92613.06;5024843;28;20060;-76
2022/01/09 11:37:08;;;;;;;9.52;4.57;;;;;;;11.02;49.51;92610.25;5024817;28;20073;-74